Terminal Aerodrome Forecast
Issued by NWS Charleston, WV

Current Version | Previous Version | Graphics & Text | Print | Product List | Glossary On
Versions: 1 2 3 4 5 6 7 8 9 10 11 12 13 14 15 16 17 18 19 20 21 22 23
323
FTUS41 KRLX 201120
TAFHTS
TAF
KHTS 201120Z 2012/2112 00000KT 4SM BR SCT001 SCT050
     FM201230 22003KT P6SM SCT250
     FM201600 24006KT P6SM SCT060
     FM210100 21002KT P6SM SCT150
     FM211000 00000KT 6SM HZ BKN080=

USA.gov is the U.S. government's official web portal to all federal, state and local government web resources and services.